5-Min.Temp.ØTemp.MaxTemp.MinLuftfeuchteLuftdruckRegenWindØWindböeMax.
00:00-0.8°C-0.8°C-0.8°C83%1019.0hPa0.0mm3.2km/h15.5km/h
00:05-0.7°C-0.7°C-0.8°C83%1018.9hPa0.0mm2.1km/h13.7km/h
00:10-0.7°C-0.7°C-0.7°C83%1018.9hPa0.0mm4.6km/h13.7km/h
00:15-0.7°C-0.6°C-0.7°C82%1018.9hPa0.0mm2.7km/h15.5km/h
00:20-0.7°C-0.6°C-0.7°C82%1019.0hPa0.0mm3.4km/h15.5km/h
00:25-0.7°C-0.7°C-0.7°C81%1019.0hPa0.0mm4.3km/h15.5km/h
00:30-0.7°C-0.7°C-0.8°C81%1019.0hPa0.0mm3.9km/h13.7km/h
00:35-0.8°C-0.7°C-0.8°C80%1019.2hPa0.0mm2.4km/h11.9km/h
00:40-0.8°C-0.8°C-0.8°C80%1019.3hPa0.0mm5.8km/h18.7km/h
00:45-0.8°C-0.7°C-0.8°C80%1019.3hPa0.0mm8.2km/h29.2km/h
00:50-0.6°C-0.6°C-0.7°C79%1019.4hPa0.0mm6.9km/h18.7km/h
00:55-0.6°C-0.5°C-0.6°C78%1019.4hPa0.0mm9.8km/h36.0km/h
01:00-0.5°C-0.5°C-0.5°C78%1019.5hPa0.0mm7.1km/h23.8km/h
01:05-0.5°C-0.5°C-0.6°C77%1019.5hPa0.0mm6.2km/h23.8km/h
01:10-0.6°C-0.5°C-0.6°C76%1019.6hPa0.0mm7.6km/h29.2km/h
01:15-0.7°C-0.6°C-0.7°C75%1019.6hPa0.0mm7.5km/h20.5km/h
01:20-0.7°C-0.7°C-0.7°C75%1019.6hPa0.0mm8.0km/h27.4km/h
01:25-0.7°C-0.7°C-0.8°C74%1019.5hPa0.0mm6.8km/h22.3km/h
01:30-0.8°C-0.8°C-0.8°C74%1019.5hPa0.0mm7.5km/h30.6km/h
01:35-0.8°C-0.8°C-0.8°C73%1019.6hPa0.0mm6.7km/h29.2km/h
01:40-0.8°C-0.8°C-0.8°C73%1019.7hPa0.0mm4.5km/h15.5km/h
01:45-0.9°C-0.8°C-0.9°C73%1019.9hPa0.0mm4.4km/h15.5km/h
01:50-0.9°C-0.9°C-0.9°C73%1020.0hPa0.0mm3.6km/h13.7km/h
01:55-0.9°C-0.9°C-1.0°C74%1019.9hPa0.0mm2.5km/h6.8km/h
02:00-0.9°C-0.9°C-1.0°C74%1019.8hPa0.0mm3.5km/h11.9km/h
02:05-0.9°C-0.9°C-1.0°C74%1019.9hPa0.0mm2.1km/h10.1km/h
02:10-0.9°C-0.9°C-1.0°C74%1020.1hPa0.0mm2.0km/h16.9km/h
02:15-1.0°C-1.0°C-1.1°C74%1020.1hPa0.0mm3.1km/h15.5km/h
02:20-1.1°C-1.0°C-1.1°C74%1020.2hPa0.0mm4.4km/h13.7km/h
02:25-1.1°C-1.1°C-1.1°C74%1020.3hPa0.0mm2.8km/h10.1km/h
02:30-1.2°C-1.1°C-1.2°C74%1020.3hPa0.0mm4.3km/h18.7km/h
02:35-1.2°C-1.2°C-1.2°C74%1020.3hPa0.0mm5.1km/h13.7km/h
02:40-1.3°C-1.2°C-1.3°C74%1020.3hPa0.0mm4.9km/h13.7km/h
02:45-1.3°C-1.3°C-1.3°C74%1020.3hPa0.0mm6.2km/h20.5km/h
02:50-1.3°C-1.3°C-1.4°C73%1020.3hPa0.0mm8.0km/h27.4km/h
02:55-1.4°C-1.3°C-1.4°C73%1020.3hPa0.0mm9.3km/h23.8km/h
03:00-1.4°C-1.4°C-1.4°C73%1020.4hPa0.0mm6.6km/h20.5km/h
03:05-1.4°C-1.4°C-1.5°C73%1020.4hPa0.0mm5.1km/h20.5km/h
03:10-1.6°C-1.5°C-1.6°C73%1020.5hPa0.0mm6.9km/h22.3km/h
03:15-1.6°C-1.6°C-1.6°C73%1020.6hPa0.0mm9.5km/h29.2km/h
03:20-1.6°C-1.6°C-1.6°C74%1020.7hPa0.0mm10.5km/h27.4km/h
03:25-1.6°C-1.5°C-1.6°C74%1020.8hPa0.0mm10.0km/h27.4km/h
03:30-1.6°C-1.5°C-1.6°C74%1020.8hPa0.0mm9.5km/h22.3km/h
03:35-1.6°C-1.6°C-1.6°C74%1020.9hPa0.0mm7.2km/h18.7km/h
03:40-1.6°C-1.6°C-1.6°C75%1020.9hPa0.0mm9.0km/h25.6km/h
03:45-1.6°C-1.6°C-1.7°C75%1021.0hPa0.0mm9.1km/h22.3km/h
03:50-1.7°C-1.6°C-1.7°C75%1021.0hPa0.0mm7.0km/h25.6km/h
03:55-1.7°C-1.7°C-1.7°C75%1021.0hPa0.0mm8.0km/h20.5km/h
04:00-1.7°C-1.7°C-1.8°C75%1021.1hPa0.0mm7.5km/h23.8km/h
04:05-1.8°C-1.8°C-1.9°C75%1021.2hPa0.0mm5.8km/h15.5km/h
04:10-1.9°C-1.8°C-1.9°C75%1021.3hPa0.0mm7.1km/h20.5km/h
04:15-2.0°C-1.9°C-2.0°C75%1021.3hPa0.0mm6.0km/h23.8km/h
04:20-2.0°C-2.0°C-2.1°C76%1021.3hPa0.0mm7.1km/h27.4km/h
04:25-2.1°C-2.0°C-2.1°C76%1021.4hPa0.0mm8.0km/h25.6km/h
04:30-2.1°C-2.1°C-2.2°C76%1021.5hPa0.0mm4.7km/h20.5km/h
04:35-2.2°C-2.1°C-2.2°C76%1021.5hPa0.0mm8.8km/h23.8km/h
04:40-2.2°C-2.2°C-2.3°C77%1021.6hPa0.0mm6.8km/h20.5km/h
04:45-2.3°C-2.3°C-2.3°C77%1021.6hPa0.0mm5.9km/h18.7km/h
04:50-2.3°C-2.3°C-2.4°C77%1021.7hPa0.0mm7.8km/h20.5km/h
04:55-2.4°C-2.4°C-2.4°C77%1021.8hPa0.0mm7.9km/h18.7km/h
05:00-2.4°C-2.4°C-2.5°C76%1021.9hPa0.0mm8.8km/h20.5km/h
05:05-2.5°C-2.4°C-2.5°C76%1021.9hPa0.0mm7.9km/h22.3km/h
05:10-2.6°C-2.5°C-2.6°C76%1022.0hPa0.0mm7.4km/h22.3km/h
05:15-2.6°C-2.6°C-2.6°C76%1022.0hPa0.0mm8.4km/h20.5km/h
05:20-2.6°C-2.6°C-2.6°C76%1022.0hPa0.0mm7.0km/h20.5km/h
05:25-2.7°C-2.6°C-2.7°C76%1022.1hPa0.0mm6.7km/h20.5km/h
05:30-2.7°C-2.7°C-2.7°C77%1022.1hPa0.0mm7.5km/h20.5km/h
05:35-2.7°C-2.7°C-2.7°C77%1022.2hPa0.0mm6.0km/h22.3km/h
05:40-2.7°C-2.7°C-2.7°C77%1022.3hPa0.0mm4.1km/h18.7km/h
05:45-2.7°C-2.7°C-2.7°C77%1022.4hPa0.0mm4.9km/h22.3km/h
05:50-2.7°C-2.7°C-2.7°C77%1022.3hPa0.0mm5.5km/h23.8km/h
05:55-2.7°C-2.7°C-2.7°C77%1022.3hPa0.0mm8.3km/h20.5km/h
06:00-2.7°C-2.7°C-2.7°C76%1022.4hPa0.0mm7.5km/h25.6km/h
06:05-2.7°C-2.7°C-2.7°C76%1022.5hPa0.0mm8.8km/h22.3km/h
06:10-2.7°C-2.7°C-2.7°C76%1022.5hPa0.0mm8.6km/h27.4km/h
06:15-2.7°C-2.7°C-2.7°C76%1022.4hPa0.0mm9.5km/h29.2km/h
06:20-2.7°C-2.7°C-2.7°C76%1022.4hPa0.0mm12.0km/h29.2km/h
06:25-2.7°C-2.7°C-2.8°C76%1022.4hPa0.0mm12.3km/h27.4km/h
06:30-2.7°C-2.7°C-2.7°C76%1022.5hPa0.0mm13.1km/h27.4km/h
06:35-2.7°C-2.7°C-2.7°C76%1022.7hPa0.0mm14.4km/h30.6km/h
06:40-2.7°C-2.7°C-2.7°C76%1022.7hPa0.0mm11.0km/h32.4km/h
06:45-2.7°C-2.7°C-2.7°C75%1022.7hPa0.0mm9.6km/h25.6km/h
06:50-2.6°C-2.6°C-2.7°C75%1022.8hPa0.0mm12.3km/h32.4km/h
06:55-2.6°C-2.6°C-2.6°C74%1022.9hPa0.0mm15.0km/h32.4km/h
07:00-2.5°C-2.5°C-2.6°C74%1023.0hPa0.0mm13.3km/h25.6km/h
07:05-2.5°C-2.5°C-2.6°C74%1023.1hPa0.0mm10.5km/h25.6km/h
07:10-2.6°C-2.6°C-2.6°C74%1023.2hPa0.0mm5.2km/h20.5km/h
07:15-2.6°C-2.6°C-2.7°C74%1023.3hPa0.0mm5.2km/h16.9km/h
07:20-2.7°C-2.6°C-2.7°C74%1023.4hPa0.0mm4.8km/h18.7km/h
07:25-2.8°C-2.7°C-2.8°C74%1023.4hPa0.0mm5.8km/h18.7km/h
07:30-2.8°C-2.8°C-2.8°C73%1023.5hPa0.0mm3.9km/h16.9km/h
07:35-2.8°C-2.8°C-2.9°C74%1023.5hPa0.0mm7.7km/h29.2km/h
07:40-2.8°C-2.8°C-2.9°C74%1023.6hPa0.0mm8.0km/h20.5km/h
07:45-2.8°C-2.8°C-2.8°C74%1023.7hPa0.0mm4.5km/h15.5km/h
07:50-2.8°C-2.8°C-2.8°C74%1023.6hPa0.0mm3.3km/h18.7km/h
07:55-2.9°C-2.8°C-2.9°C74%1023.8hPa0.0mm3.7km/h16.9km/h
08:00-2.9°C-2.8°C-2.9°C74%1024.0hPa0.0mm3.8km/h20.5km/h
08:05-2.9°C-2.9°C-2.9°C74%1024.0hPa0.0mm3.3km/h18.7km/h
08:10-2.9°C-2.9°C-2.9°C74%1024.0hPa0.0mm3.7km/h20.5km/h
08:15-2.9°C-2.8°C-2.9°C74%1024.0hPa0.0mm3.8km/h18.7km/h
08:20-2.8°C-2.8°C-2.8°C74%1023.9hPa0.0mm8.9km/h23.8km/h
08:25-2.7°C-2.7°C-2.8°C74%1023.9hPa0.0mm9.9km/h29.2km/h
08:30-2.6°C-2.6°C-2.7°C74%1024.0hPa0.0mm10.1km/h22.3km/h
08:35-2.5°C-2.4°C-2.6°C74%1023.9hPa0.0mm10.0km/h29.2km/h
08:40-2.3°C-2.3°C-2.4°C73%1023.9hPa0.0mm6.9km/h20.5km/h
08:45-2.2°C-2.2°C-2.3°C73%1024.0hPa0.0mm5.2km/h18.7km/h
08:50-2.2°C-2.1°C-2.2°C73%1024.0hPa0.0mm6.5km/h27.4km/h
08:55-2.1°C-2.0°C-2.1°C73%1024.0hPa0.0mm6.2km/h27.4km/h
09:00-1.9°C-1.9°C-2.0°C73%1023.9hPa0.0mm3.3km/h20.5km/h
09:05-1.8°C-1.8°C-1.9°C73%1023.9hPa0.0mm6.0km/h22.3km/h
09:10-1.7°C-1.6°C-1.7°C72%1023.9hPa0.0mm7.0km/h23.8km/h
09:15-1.6°C-1.5°C-1.6°C72%1024.0hPa0.0mm6.3km/h18.7km/h
09:20-1.4°C-1.4°C-1.5°C71%1024.0hPa0.0mm4.6km/h29.2km/h
09:25-1.4°C-1.4°C-1.4°C71%1024.0hPa0.0mm7.5km/h16.9km/h